createdAt,value
2019-02-15T00:02:22.489Z,1.98
2019-02-15T00:04:50.535Z,1.83
2019-02-15T00:07:18.893Z,1.60
2019-02-15T00:09:46.961Z,1.72
2019-02-15T00:12:15.042Z,1.60
2019-02-15T00:14:47.820Z,1.62
2019-02-15T00:17:23.105Z,1.82
2019-02-15T00:19:52.794Z,1.65
2019-02-15T00:22:20.915Z,1.70
2019-02-15T00:24:49.105Z,1.90
2019-02-15T00:27:17.198Z,1.77
2019-02-15T00:29:45.270Z,1.72
2019-02-15T00:32:13.355Z,1.80
2019-02-15T00:34:41.408Z,1.70
2019-02-15T00:37:09.498Z,1.80
2019-02-15T00:39:37.583Z,1.80
2019-02-15T00:42:05.664Z,1.80
2019-02-15T00:44:33.718Z,2.00
2019-02-15T00:47:32.212Z,1.80
2019-02-15T00:50:26.005Z,1.52
2019-02-15T00:53:22.845Z,1.73
2019-02-15T00:56:04.626Z,1.25
2019-02-15T00:59:04.008Z,1.30
2019-02-15T01:01:57.701Z,1.50
2019-02-15T01:04:44.407Z,1.50
2019-02-15T01:07:22.497Z,1.60
2019-02-15T01:09:58.067Z,2.22
2019-02-15T01:12:30.892Z,1.70
2019-02-15T01:14:59.194Z,1.52
2019-02-15T01:17:27.683Z,1.50
2019-02-15T01:19:56.009Z,1.27
2019-02-15T01:22:24.491Z,1.30
2019-02-15T01:24:52.664Z,1.72
2019-02-15T01:27:46.289Z,1.47
2019-02-15T01:30:40.104Z,1.22
2019-02-15T01:33:26.437Z,1.20
2019-02-15T01:36:12.486Z,1.17
2019-02-15T01:38:47.303Z,1.30
2019-02-15T01:41:27.696Z,1.27
2019-02-15T01:44:04.221Z,1.30
2019-02-15T01:46:46.180Z,1.40
2019-02-15T01:49:15.388Z,1.42
2019-02-15T01:51:43.437Z,1.50
2019-02-15T01:54:11.514Z,1.70
2019-02-15T01:56:39.571Z,1.67
2019-02-15T01:59:07.694Z,1.98
2019-02-15T02:01:36.017Z,1.62
2019-02-15T02:04:04.105Z,1.98
2019-02-15T02:06:32.279Z,2.02
2019-02-15T02:09:00.391Z,1.95
2019-02-15T02:11:29.773Z,2.10
2019-02-15T02:13:57.860Z,2.15
2019-02-15T02:16:26.157Z,1.98
2019-02-15T02:18:54.233Z,2.52
2019-02-15T02:21:22.827Z,2.22
2019-02-15T02:23:50.915Z,2.30
2019-02-15T02:26:19.106Z,2.50
2019-02-15T02:28:47.194Z,2.20
2019-02-15T02:31:15.391Z,2.30
2019-02-15T02:33:44.717Z,2.55
2019-02-15T02:36:12.778Z,2.35
2019-02-15T02:38:40.857Z,2.65
2019-02-15T02:41:09.129Z,2.25
2019-02-15T02:43:37.466Z,2.47
2019-02-15T02:46:05.816Z,2.25
2019-02-15T02:48:33.908Z,2.58
2019-02-15T02:51:01.954Z,2.58
2019-02-15T02:53:30.026Z,2.35
2019-02-15T02:55:58.085Z,2.30
2019-02-15T02:58:26.156Z,2.30
2019-02-15T03:00:54.210Z,2.47
2019-02-15T03:03:22.269Z,2.17
2019-02-15T03:05:50.351Z,2.47
2019-02-15T03:08:19.636Z,2.42
2019-02-15T03:10:49.188Z,2.10
2019-02-15T03:13:17.323Z,2.37
2019-02-15T03:15:45.676Z,2.17
2019-02-15T03:18:13.740Z,1.98
2019-02-15T03:20:41.793Z,2.83
2019-02-15T03:23:09.872Z,2.40
2019-02-15T03:25:38.153Z,2.35
2019-02-15T03:28:06.525Z,2.15
2019-02-15T03:30:34.600Z,2.35
2019-02-15T03:33:02.847Z,2.45
2019-02-15T03:35:30.943Z,1.87
2019-02-15T03:38:21.152Z,2.30
2019-02-15T03:40:54.444Z,2.10
2019-02-15T03:43:22.487Z,1.82
2019-02-15T03:45:50.643Z,1.85
2019-02-15T03:48:19.581Z,1.87
2019-02-15T03:50:47.775Z,1.87
2019-02-15T03:53:15.816Z,1.70
2019-02-15T03:55:43.877Z,1.55
2019-02-15T03:58:11.905Z,1.80
2019-02-15T04:00:39.983Z,1.82
2019-02-15T04:03:08.054Z,1.62
2019-02-15T04:05:36.116Z,1.50
2019-02-15T04:08:04.189Z,1.42
2019-02-15T04:10:32.270Z,1.60
2019-02-15T04:13:00.612Z,1.57
2019-02-15T04:15:28.977Z,1.55
2019-02-15T04:17:57.259Z,1.47
2019-02-15T04:20:25.338Z,1.67
2019-02-15T04:22:53.387Z,1.47
2019-02-15T04:25:21.432Z,1.52
2019-02-15T04:27:49.487Z,1.25
2019-02-15T04:30:17.673Z,1.42
2019-02-15T04:32:47.770Z,1.50
2019-02-15T04:35:16.199Z,1.50
2019-02-15T04:37:44.227Z,1.17
2019-02-15T04:40:12.260Z,1.47
2019-02-15T04:42:40.629Z,1.70
2019-02-15T04:45:08.755Z,1.35
2019-02-15T04:47:36.849Z,1.32
2019-02-15T04:50:06.836Z,1.50
2019-02-15T04:52:34.865Z,1.42
2019-02-15T04:55:03.375Z,1.35
2019-02-15T04:57:31.417Z,1.47
2019-02-15T04:59:59.508Z,1.42
2019-02-15T05:02:28.724Z,1.30
2019-02-15T05:04:56.803Z,1.17
2019-02-15T05:07:24.856Z,1.35
2019-02-15T05:09:52.895Z,1.50
2019-02-15T05:12:21.686Z,1.40
2019-02-15T05:14:53.056Z,1.60
2019-02-15T05:17:20.204Z,1.40
2019-02-15T05:19:48.326Z,1.35
2019-02-15T05:22:16.501Z,1.27
2019-02-15T05:24:44.704Z,1.30
2019-02-15T05:27:13.040Z,1.40
2019-02-15T05:29:41.107Z,1.32
2019-02-15T05:32:09.176Z,1.35
2019-02-15T05:34:37.599Z,1.27
2019-02-15T05:37:05.626Z,1.60
2019-02-15T05:39:35.787Z,1.27
2019-02-15T05:42:05.048Z,1.42
2019-02-15T05:44:33.513Z,1.22
2019-02-15T05:47:02.963Z,1.35
2019-02-15T05:49:31.057Z,1.30
2019-02-15T05:51:59.160Z,1.20
2019-02-15T05:54:27.646Z,1.57
2019-02-15T05:56:55.747Z,1.65
2019-02-15T05:59:23.889Z,1.27
2019-02-15T06:01:51.955Z,1.53
2019-02-15T06:04:21.159Z,1.40
2019-02-15T06:06:49.351Z,1.50
2019-02-15T06:09:17.385Z,1.30
2019-02-15T06:11:45.838Z,1.42
2019-02-15T06:14:14.134Z,1.37
2019-02-15T06:16:42.308Z,1.37
2019-02-15T06:19:10.379Z,1.70
2019-02-15T06:21:38.457Z,1.52
2019-02-15T06:24:06.634Z,1.02
2019-02-15T06:26:34.680Z,1.30
2019-02-15T06:29:03.849Z,1.40
2019-02-15T06:31:31.939Z,1.32
2019-02-15T06:34:00.049Z,1.52
2019-02-15T06:36:33.187Z,1.55
2019-02-15T06:39:01.232Z,1.40
2019-02-15T06:41:33.006Z,1.30
2019-02-15T06:44:01.769Z,1.55
2019-02-15T06:46:29.825Z,1.50
2019-02-15T06:49:00.372Z,1.47
2019-02-15T06:51:28.443Z,1.57
2019-02-15T06:53:56.957Z,1.57
2019-02-15T06:56:25.007Z,1.80
2019-02-15T06:59:10.069Z,1.60
2019-02-15T07:01:43.440Z,1.40
2019-02-15T07:04:20.953Z,1.80
2019-02-15T07:06:49.133Z,1.90
2019-02-15T07:09:17.149Z,1.45
2019-02-15T07:11:45.446Z,1.40
2019-02-15T07:14:13.514Z,1.60
2019-02-15T07:16:41.644Z,1.80
2019-02-15T07:19:09.673Z,1.50
2019-02-15T07:21:38.983Z,1.85
2019-02-15T07:24:07.023Z,1.63
2019-02-15T07:26:36.108Z,1.80
2019-02-15T07:29:04.193Z,1.62
2019-02-15T07:31:32.282Z,2.45
2019-02-15T07:34:00.778Z,2.08
2019-02-15T07:36:28.826Z,2.00
2019-02-15T07:38:57.573Z,1.98
2019-02-15T07:41:25.621Z,2.45
2019-02-15T07:43:53.681Z,1.95
2019-02-15T07:46:22.733Z,1.82
2019-02-15T07:48:50.798Z,1.93
2019-02-15T07:51:18.851Z,1.90
2019-02-15T07:53:46.879Z,3.37
2019-02-15T07:56:15.023Z,3.00
2019-02-15T07:58:43.176Z,2.83
2019-02-15T08:01:11.245Z,2.33
2019-02-15T08:03:39.313Z,2.67
2019-02-15T08:06:07.368Z,2.07
2019-02-15T08:08:35.399Z,1.80
2019-02-15T08:11:05.281Z,1.60
2019-02-15T08:13:33.682Z,2.00
2019-02-15T08:16:02.933Z,1.93
2019-02-15T08:18:31.219Z,1.97
2019-02-15T08:20:59.258Z,2.00
2019-02-15T08:23:27.315Z,2.00
2019-02-15T08:25:55.381Z,2.10
2019-02-15T08:28:23.876Z,2.60
2019-02-15T08:30:51.923Z,2.10
2019-02-15T08:33:20.237Z,2.43
2019-02-15T08:35:48.545Z,2.27
2019-02-15T08:38:17.938Z,2.00
2019-02-15T08:40:45.978Z,1.87
2019-02-15T08:43:14.421Z,1.70
2019-02-15T08:45:42.870Z,2.00
2019-02-15T08:48:11.224Z,2.10
2019-02-15T08:50:39.237Z,2.27
2019-02-15T08:53:07.373Z,2.27
2019-02-15T08:55:35.644Z,2.47
2019-02-15T08:58:03.796Z,2.50
2019-02-15T09:00:31.876Z,2.10
2019-02-15T09:03:00.099Z,1.90
2019-02-15T09:05:28.116Z,2.03
2019-02-15T09:07:56.245Z,2.53
2019-02-15T09:10:24.421Z,2.63
2019-02-15T09:12:52.442Z,2.70
2019-02-15T09:15:21.139Z,2.80
2019-02-15T09:17:49.255Z,3.10
2019-02-15T09:20:17.612Z,2.77
2019-02-15T09:22:45.753Z,2.93
2019-02-15T09:25:14.881Z,2.63
2019-02-15T09:28:02.637Z,2.70
2019-02-15T09:30:30.784Z,3.07
2019-02-15T09:32:59.229Z,2.63
2019-02-15T09:35:27.261Z,2.97
2019-02-15T09:37:55.619Z,3.47
2019-02-15T09:40:24.563Z,4.30
2019-02-15T09:42:54.288Z,4.80
2019-02-15T09:45:22.329Z,4.67
2019-02-15T09:47:50.407Z,4.93
2019-02-15T09:50:18.467Z,5.03
2019-02-15T09:52:46.526Z,5.23
2019-02-15T09:55:14.587Z,5.07
2019-02-15T09:57:43.748Z,5.43
2019-02-15T10:00:11.778Z,4.53
2019-02-15T10:02:40.285Z,4.60
2019-02-15T10:05:08.307Z,5.37
2019-02-15T10:07:36.406Z,5.10
2019-02-15T10:10:05.481Z,5.23
2019-02-15T10:12:33.543Z,5.50
2019-02-15T10:18:04.968Z,5.27
2019-02-15T10:20:33.057Z,5.97
2019-02-15T10:23:01.117Z,5.50
2019-02-15T10:25:29.140Z,5.77
2019-02-15T10:27:57.532Z,6.23
2019-02-15T10:30:25.583Z,5.80
2019-02-15T10:32:54.020Z,5.67
2019-02-15T10:35:22.122Z,5.30
2019-02-15T10:37:50.179Z,5.73
2019-02-15T10:40:18.276Z,5.97
2019-02-15T10:42:46.298Z,6.07
2019-02-15T10:45:14.734Z,5.57
2019-02-15T10:47:42.772Z,5.70
2019-02-15T10:50:11.986Z,5.20
2019-02-15T10:52:40.002Z,5.60
2019-02-15T10:55:08.231Z,5.60
2019-02-15T10:57:36.411Z,5.43
2019-02-15T11:00:09.793Z,5.87
2019-02-15T11:02:38.111Z,5.70
2019-02-15T11:05:06.796Z,5.83
2019-02-15T11:07:34.863Z,6.13
2019-02-15T11:10:03.762Z,5.93
2019-02-15T11:12:32.908Z,5.57
2019-02-15T11:15:01.106Z,5.73
2019-02-15T11:17:29.162Z,5.37
2019-02-15T11:19:58.315Z,6.03
2019-02-15T11:22:26.392Z,6.00
2019-02-15T11:24:54.417Z,5.20
2019-02-15T11:27:22.526Z,5.70
2019-02-15T11:29:50.652Z,6.40
2019-02-15T11:32:18.721Z,6.07
2019-02-15T11:34:46.839Z,6.13
2019-02-15T11:37:15.263Z,6.03
2019-02-15T11:39:43.358Z,6.27
2019-02-15T11:42:11.569Z,6.03
2019-02-15T11:44:40.378Z,6.23
2019-02-15T11:47:09.449Z,6.30
2019-02-15T11:49:37.490Z,6.37
2019-02-15T11:52:05.996Z,6.63
2019-02-15T11:54:34.428Z,6.50
2019-02-15T11:57:02.758Z,6.23
2019-02-15T11:59:32.669Z,6.47
2019-02-15T12:02:06.329Z,6.33
2019-02-15T12:04:30.924Z,6.17
2019-02-15T12:06:59.102Z,6.37
2019-02-15T12:09:27.134Z,6.23
2019-02-15T12:11:55.185Z,5.27
2019-02-15T12:14:27.510Z,5.47
2019-02-15T12:16:55.922Z,5.23
2019-02-15T12:19:24.316Z,5.40
2019-02-15T12:21:52.389Z,5.10
2019-02-15T12:24:20.449Z,5.13
2019-02-15T12:26:48.483Z,6.20
2019-02-15T12:29:16.666Z,5.23
2019-02-15T12:31:45.095Z,5.27
2019-02-15T12:34:13.214Z,5.40
2019-02-15T12:36:41.255Z,5.23
2019-02-15T12:39:12.736Z,4.93
2019-02-15T12:41:40.002Z,5.10
2019-02-15T12:44:08.233Z,4.63
2019-02-15T12:46:39.004Z,5.03
2019-02-15T12:49:07.065Z,4.67
2019-02-15T12:51:35.282Z,4.23
2019-02-15T12:54:03.643Z,4.73
2019-02-15T12:56:32.525Z,4.80
2019-02-15T12:59:01.062Z,4.47
2019-02-15T13:01:29.208Z,4.27
2019-02-15T13:03:57.676Z,4.37
2019-02-15T13:06:28.758Z,4.40
2019-02-15T13:08:58.079Z,4.40
2019-02-15T13:11:26.140Z,4.50
2019-02-15T13:13:54.262Z,4.47
2019-02-15T13:16:22.482Z,5.87
2019-02-15T13:18:50.935Z,4.60
2019-02-15T13:21:19.046Z,5.33
2019-02-15T13:23:47.090Z,5.57
2019-02-15T13:26:15.321Z,6.03
2019-02-15T13:28:43.800Z,5.40
2019-02-15T13:31:12.545Z,5.63
2019-02-15T13:33:40.658Z,6.03
2019-02-15T13:36:08.864Z,5.53
2019-02-15T13:38:37.097Z,6.10
2019-02-15T13:41:05.222Z,5.90
2019-02-15T13:43:33.924Z,5.40
2019-02-15T13:46:02.000Z,6.27
2019-02-15T13:48:30.082Z,5.50
2019-02-15T13:50:58.130Z,5.47
2019-02-15T13:53:26.243Z,5.77
2019-02-15T13:55:55.567Z,5.60
2019-02-15T13:58:24.487Z,6.33
2019-02-15T14:00:52.700Z,5.90
2019-02-15T14:03:20.808Z,5.10
2019-02-15T14:05:48.937Z,6.47
2019-02-15T14:08:17.059Z,5.97
2019-02-15T14:10:45.185Z,5.63
2019-02-15T14:13:13.276Z,5.57
2019-02-15T14:15:41.344Z,5.20
2019-02-15T14:18:09.508Z,5.80
2019-02-15T14:20:37.516Z,5.63
2019-02-15T14:23:05.597Z,5.70
2019-02-15T14:25:33.701Z,5.53
2019-02-15T14:28:01.790Z,5.73
2019-02-15T14:30:30.189Z,6.20
2019-02-15T14:32:58.139Z,5.60
2019-02-15T14:35:26.275Z,5.47
2019-02-15T14:37:54.326Z,5.00
2019-02-15T14:40:22.397Z,5.27
2019-02-15T14:42:50.840Z,5.23
2019-02-15T14:45:19.089Z,5.30
2019-02-15T14:47:54.502Z,5.40
2019-02-15T14:50:17.804Z,4.97
2019-02-15T14:52:46.198Z,5.43
2019-02-15T14:55:14.304Z,5.53
2019-02-15T14:57:42.340Z,5.73
2019-02-15T15:00:11.276Z,5.50
2019-02-15T15:02:39.327Z,5.33
2019-02-15T15:05:07.636Z,5.20
2019-02-15T15:07:35.692Z,5.07
2019-02-15T15:10:04.627Z,5.77
2019-02-15T15:12:32.727Z,5.27
2019-02-15T15:15:00.813Z,5.40
2019-02-15T15:17:28.945Z,5.10
2019-02-15T15:19:58.226Z,5.60
2019-02-15T15:22:26.842Z,4.90
2019-02-15T15:24:54.969Z,5.50
2019-02-15T15:27:23.046Z,5.67
2019-02-15T15:29:51.112Z,5.67
2019-02-15T15:32:20.597Z,4.97
2019-02-15T15:34:48.705Z,5.10
2019-02-15T15:37:17.899Z,5.93
2019-02-15T15:39:46.544Z,5.30
2019-02-15T15:42:14.782Z,5.27
2019-02-15T15:44:43.282Z,5.60
2019-02-15T15:47:13.147Z,5.83
2019-02-15T15:49:41.233Z,6.10
2019-02-15T15:52:09.323Z,5.63
2019-02-15T15:54:37.519Z,6.37
2019-02-15T15:57:05.572Z,5.47
2019-02-15T15:59:33.817Z,5.73
2019-02-15T16:02:01.842Z,5.90
2019-02-15T16:04:30.195Z,5.83
2019-02-15T16:06:58.213Z,5.83
2019-02-15T16:09:26.741Z,5.53
2019-02-15T16:11:54.799Z,6.37
2019-02-15T16:14:24.284Z,6.57
2019-02-15T16:16:52.874Z,6.83
2019-02-15T16:19:21.596Z,6.53
2019-02-15T16:21:51.207Z,7.10
2019-02-15T16:24:19.640Z,6.77
2019-02-15T16:26:47.734Z,6.50
2019-02-15T16:29:15.900Z,6.63
2019-02-15T16:31:44.000Z,6.47
2019-02-15T16:34:12.658Z,6.60
2019-02-15T16:36:40.804Z,6.93
2019-02-15T16:39:10.011Z,6.73
2019-02-15T16:41:38.277Z,6.77
2019-02-15T16:44:06.329Z,6.13
2019-02-15T16:46:34.434Z,10.83
2019-02-15T16:49:02.924Z,11.27
2019-02-15T16:51:31.078Z,11.13
2019-02-15T16:53:59.180Z,9.77
2019-02-15T16:56:28.271Z,8.37
2019-02-15T16:58:56.313Z,8.07
2019-02-15T17:01:24.399Z,8.10
2019-02-15T17:03:52.456Z,7.83
2019-02-15T17:06:20.863Z,7.23
2019-02-15T17:08:49.840Z,6.97
2019-02-15T17:11:18.215Z,7.00
2019-02-15T17:13:50.968Z,7.07
2019-02-15T17:16:19.327Z,7.60
2019-02-15T17:37:07.367Z,6.27
2019-02-15T17:39:36.742Z,6.67
2019-02-15T17:42:04.940Z,6.93
2019-02-15T17:44:33.001Z,7.23
2019-02-15T17:47:02.482Z,7.23
2019-02-15T17:49:30.677Z,6.90
2019-02-15T17:51:58.812Z,6.47
2019-02-15T17:54:28.646Z,6.60
2019-02-15T17:56:56.949Z,6.47
2019-02-15T17:59:25.052Z,6.00
2019-02-15T18:01:53.153Z,6.23
2019-02-15T18:04:21.298Z,6.00
2019-02-15T18:06:49.837Z,6.53
2019-02-15T18:09:18.157Z,6.50
2019-02-15T18:11:46.423Z,5.93
2019-02-15T18:14:14.503Z,6.00
2019-02-15T18:16:42.640Z,6.23
2019-02-15T18:19:12.168Z,6.07
2019-02-15T18:21:40.628Z,6.00
2019-02-15T18:24:08.689Z,5.53
2019-02-15T18:26:37.065Z,5.13
2019-02-15T18:29:06.375Z,5.20
2019-02-15T18:31:34.510Z,5.17
2019-02-15T18:34:02.568Z,4.70
2019-02-15T18:36:32.093Z,4.13
2019-02-15T18:39:01.386Z,4.30
2019-02-15T18:41:30.103Z,3.90
2019-02-15T18:43:58.570Z,3.90
2019-02-15T18:46:26.654Z,4.07
2019-02-15T18:48:55.143Z,4.03
2019-02-15T18:51:23.618Z,3.37
2019-02-15T18:53:52.085Z,3.50
2019-02-15T18:56:20.375Z,3.33
2019-02-15T18:58:49.685Z,4.20
2019-02-15T19:01:18.338Z,4.23
2019-02-15T19:03:46.534Z,3.80
2019-02-15T19:06:14.694Z,3.30
2019-02-15T19:08:44.285Z,4.23
2019-02-15T19:11:12.437Z,3.83
2019-02-15T19:13:41.356Z,4.00
2019-02-15T19:16:10.805Z,3.63
2019-02-15T19:18:39.007Z,3.80
2019-02-15T19:21:07.310Z,4.17
2019-02-15T19:23:35.568Z,4.17
2019-02-15T19:26:04.155Z,3.80
2019-02-15T19:28:32.227Z,3.77
2019-02-15T19:31:00.860Z,3.80
2019-02-15T19:33:29.256Z,3.40
2019-02-15T19:35:57.399Z,3.60
2019-02-15T19:38:25.523Z,3.30
2019-02-15T19:40:53.627Z,3.83
2019-02-15T19:43:21.821Z,3.30
2019-02-15T19:45:52.596Z,3.37
2019-02-15T19:48:20.700Z,3.50
2019-02-15T19:50:48.753Z,3.57
2019-02-15T19:53:16.879Z,3.33
2019-02-15T19:55:45.097Z,3.37
2019-02-15T19:58:13.588Z,3.40
2019-02-15T20:00:42.606Z,3.40
2019-02-15T20:03:10.811Z,3.07
2019-02-15T20:05:38.991Z,3.17
2019-02-15T20:08:07.457Z,3.53
2019-02-15T20:10:35.674Z,3.17
2019-02-15T20:13:05.166Z,3.37
2019-02-15T20:15:33.395Z,3.40
2019-02-15T20:18:02.412Z,3.43
2019-02-15T20:20:32.224Z,3.37
2019-02-15T20:23:00.834Z,3.23
2019-02-15T20:25:29.914Z,3.10
2019-02-15T20:27:58.771Z,3.07
2019-02-15T20:30:27.011Z,3.13
2019-02-15T20:32:55.478Z,3.40
2019-02-15T20:35:24.246Z,2.97
2019-02-15T20:37:53.000Z,3.10
2019-02-15T20:40:21.244Z,3.13
2019-02-15T20:42:49.397Z,3.40
2019-02-15T20:45:19.371Z,3.27
2019-02-15T20:47:47.708Z,3.00
2019-02-15T20:50:16.109Z,3.03
2019-02-15T20:52:46.114Z,3.37
2019-02-15T20:55:14.696Z,3.10
2019-02-15T20:57:43.125Z,3.30
2019-02-15T21:00:15.278Z,2.90
2019-02-15T21:02:44.528Z,3.30
2019-02-15T21:05:12.992Z,3.20
2019-02-15T21:07:41.417Z,3.47
2019-02-15T21:10:10.864Z,2.83
2019-02-15T21:12:39.955Z,3.67
2019-02-15T21:15:08.801Z,3.03
2019-02-15T21:17:37.362Z,3.37
2019-02-15T21:20:08.128Z,3.13
2019-02-15T21:22:36.724Z,2.73
2019-02-15T21:25:06.371Z,3.10
2019-02-15T21:27:34.779Z,2.93
2019-02-15T21:30:03.903Z,2.87
2019-02-15T21:32:33.306Z,2.60
2019-02-15T21:35:01.520Z,2.67
2019-02-15T21:37:29.736Z,2.80
2019-02-15T21:39:57.974Z,2.80
2019-02-15T21:42:26.163Z,2.60
2019-02-15T21:44:54.247Z,2.87
2019-02-15T21:47:22.405Z,2.67
2019-02-15T21:49:50.514Z,2.77
2019-02-15T21:52:18.629Z,2.80
2019-02-15T21:54:46.729Z,2.47
2019-02-15T21:57:14.841Z,3.07
2019-02-15T21:59:43.096Z,2.73
2019-02-15T22:02:11.284Z,2.63
2019-02-15T22:04:39.357Z,2.37
2019-02-15T22:07:07.439Z,2.37
2019-02-15T22:09:35.919Z,2.70
2019-02-15T22:12:04.630Z,2.03
2019-02-15T22:14:34.224Z,2.20
2019-02-15T22:17:02.804Z,2.00
2019-02-15T22:19:30.930Z,2.27
2019-02-15T22:22:02.190Z,2.40
2019-02-15T22:24:32.375Z,2.20
2019-02-15T22:27:00.531Z,2.07
2019-02-15T22:29:29.241Z,2.00
2019-02-15T22:31:57.665Z,2.00
2019-02-15T22:34:27.171Z,2.10
2019-02-15T22:36:55.221Z,1.97
2019-02-15T22:39:23.425Z,1.90
2019-02-15T22:41:51.801Z,1.93
2019-02-15T22:44:21.597Z,2.00
2019-02-15T22:46:49.661Z,2.10
2019-02-15T22:49:17.758Z,2.13
2019-02-15T22:51:47.003Z,1.77
2019-02-15T22:54:15.400Z,1.57
2019-02-15T22:56:44.070Z,1.97
2019-02-15T22:59:12.221Z,1.60
2019-02-15T23:01:40.681Z,2.20
2019-02-15T23:04:08.765Z,2.10
2019-02-15T23:06:36.820Z,2.07
2019-02-15T23:09:19.140Z,1.73
2019-02-15T23:11:47.248Z,1.70
2019-02-15T23:14:15.375Z,1.43
2019-02-15T23:16:45.061Z,1.80
2019-02-15T23:19:13.372Z,1.80
2019-02-15T23:21:41.425Z,1.60
2019-02-15T23:24:09.528Z,1.50
2019-02-15T23:26:38.713Z,1.83
2019-02-15T23:29:06.914Z,1.70
2019-02-15T23:31:34.979Z,2.10
2019-02-15T23:34:03.324Z,1.60
2019-02-15T23:36:32.992Z,1.67
2019-02-15T23:39:01.058Z,1.53
2019-02-15T23:41:31.008Z,1.50
2019-02-15T23:43:59.089Z,1.63
2019-02-15T23:46:27.131Z,1.50
2019-02-15T23:48:55.523Z,1.40
2019-02-15T23:51:23.953Z,1.57
2019-02-15T23:53:52.041Z,1.30
2019-02-15T23:56:20.138Z,1.47
2019-02-15T23:58:48.596Z,1.57
